Terminal Aerodrome Forecast
Issued by NWS

Home | Current Version | Previous Version | Text Only | Print | Product List | Glossary Off
Versions: 1 2 3 4 5 6 7 8 9 10 11 12 13 14 15 16 17

000
FTUS41 KCLE 270527
TAFFDY
TAF
KFDY 270527Z 2706/2806 VRB03KT P6SM OVC050
     FM270800 00000KT 6SM BR SCT050
      TEMPO 2709/2712 2SM BR SCT025
     FM271200 VRB03KT P6SM SCT025
      TEMPO 2713/2716 BKN025
     FM271600 VRB03KT P6SM BKN040
     FM280100 VRB03KT P6SM FEW040=

USA.gov is the U.S. government's official web portal to all federal, state and local government web resources and services.